sensor_id;sensor_type;location;lat;lon;timestamp;pressure;altitude;pressure_sealevel;temperature;humidity
74466;BME280;62916;50.044;15.938;2023-06-10T00:01:18;98837.69;;;25.42;49.55
74466;BME280;62916;50.044;15.938;2023-06-10T00:03:49;98837.88;;;25.40;49.40
74466;BME280;62916;50.044;15.938;2023-06-10T00:06:20;98841.49;;;25.39;49.76
74466;BME280;62916;50.044;15.938;2023-06-10T00:08:53;98840.24;;;25.38;49.51
74466;BME280;62916;50.044;15.938;2023-06-10T00:11:24;98838.13;;;25.35;49.58
74466;BME280;62916;50.044;15.938;2023-06-10T00:13:55;98844.95;;;25.35;49.29
74466;BME280;62916;50.044;15.938;2023-06-10T00:16:27;98849.02;;;25.33;49.33
74466;BME280;62916;50.044;15.938;2023-06-10T00:18:58;98848.98;;;25.31;49.55
74466;BME280;62916;50.044;15.938;2023-06-10T00:21:31;98855.02;;;25.29;49.44
74466;BME280;62916;50.044;15.938;2023-06-10T00:24:07;98856.96;;;25.27;49.40
74466;BME280;62916;50.044;15.938;2023-06-10T00:26:42;98857.06;;;25.25;49.46
74466;BME280;62916;50.044;15.938;2023-06-10T00:29:13;98859.73;;;25.27;49.27
74466;BME280;62916;50.044;15.938;2023-06-10T00:31:45;98853.88;;;25.27;49.29
74466;BME280;62916;50.044;15.938;2023-06-10T00:34:16;98852.38;;;25.26;49.62
74466;BME280;62916;50.044;15.938;2023-06-10T00:36:47;98848.87;;;25.25;49.64
74466;BME280;62916;50.044;15.938;2023-06-10T00:39:17;98850.71;;;25.24;49.32
74466;BME280;62916;50.044;15.938;2023-06-10T00:41:48;98859.30;;;25.24;49.64
74466;BME280;62916;50.044;15.938;2023-06-10T00:44:19;98855.95;;;25.23;49.48
74466;BME280;62916;50.044;15.938;2023-06-10T00:46:50;98854.54;;;25.22;49.42
74466;BME280;62916;50.044;15.938;2023-06-10T00:49:25;98855.14;;;25.22;49.57
74466;BME280;62916;50.044;15.938;2023-06-10T00:51:56;98852.86;;;25.22;49.65
74466;BME280;62916;50.044;15.938;2023-06-10T00:54:29;98855.98;;;25.21;49.60
74466;BME280;62916;50.044;15.938;2023-06-10T00:57:02;98856.13;;;25.23;49.50
74466;BME280;62916;50.044;15.938;2023-06-10T00:59:32;98855.30;;;25.23;49.74
74466;BME280;62916;50.044;15.938;2023-06-10T01:02:05;98853.10;;;25.20;49.42
74466;BME280;62916;50.044;15.938;2023-06-10T01:04:37;98850.08;;;25.21;49.69
74466;BME280;62916;50.044;15.938;2023-06-10T01:07:12;98847.61;;;25.21;49.62
74466;BME280;62916;50.044;15.938;2023-06-10T01:09:59;98850.16;;;25.20;49.71
74466;BME280;62916;50.044;15.938;2023-06-10T01:12:37;98852.48;;;25.18;49.61
74466;BME280;62916;50.044;15.938;2023-06-10T01:15:10;98859.95;;;25.17;49.81
74466;BME280;62916;50.044;15.938;2023-06-10T01:20:40;98859.99;;;25.18;49.74
74466;BME280;62916;50.044;15.938;2023-06-10T01:23:12;98860.43;;;25.14;49.85
74466;BME280;62916;50.044;15.938;2023-06-10T01:25:47;98858.13;;;25.12;49.75
74466;BME280;62916;50.044;15.938;2023-06-10T01:28:22;98860.64;;;25.12;49.80
74466;BME280;62916;50.044;15.938;2023-06-10T01:31:02;98861.98;;;25.11;49.85
74466;BME280;62916;50.044;15.938;2023-06-10T01:33:42;98870.48;;;25.10;49.71
74466;BME280;62916;50.044;15.938;2023-06-10T01:36:15;98865.35;;;25.10;50.09
74466;BME280;62916;50.044;15.938;2023-06-10T01:38:47;98867.78;;;25.10;49.81
74466;BME280;62916;50.044;15.938;2023-06-10T01:41:21;98866.59;;;25.08;49.82
74466;BME280;62916;50.044;15.938;2023-06-10T01:43:53;98873.02;;;25.11;49.71
74466;BME280;62916;50.044;15.938;2023-06-10T01:46:25;98873.93;;;25.12;49.64
74466;BME280;62916;50.044;15.938;2023-06-10T01:48:55;98870.64;;;25.10;49.49
74466;BME280;62916;50.044;15.938;2023-06-10T01:51:26;98869.39;;;25.12;49.54
74466;BME280;62916;50.044;15.938;2023-06-10T01:53:57;98874.85;;;25.10;49.65
74466;BME280;62916;50.044;15.938;2023-06-10T01:56:28;98870.23;;;25.08;49.69
74466;BME280;62916;50.044;15.938;2023-06-10T01:58:59;98880.57;;;25.07;49.78
74466;BME280;62916;50.044;15.938;2023-06-10T02:01:30;98882.86;;;25.05;49.58
74466;BME280;62916;50.044;15.938;2023-06-10T02:04:01;98882.41;;;25.03;49.70
74466;BME280;62916;50.044;15.938;2023-06-10T02:06:32;98880.48;;;25.04;49.57
74466;BME280;62916;50.044;15.938;2023-06-10T02:09:04;98885.03;;;25.05;49.69
74466;BME280;62916;50.044;15.938;2023-06-10T02:11:34;98881.12;;;25.04;49.71
74466;BME280;62916;50.044;15.938;2023-06-10T02:14:05;98879.69;;;25.02;49.93
74466;BME280;62916;50.044;15.938;2023-06-10T02:16:36;98884.20;;;25.02;49.75
74466;BME280;62916;50.044;15.938;2023-06-10T02:19:07;98886.66;;;25.00;49.71
74466;BME280;62916;50.044;15.938;2023-06-10T02:21:38;98890.40;;;25.00;49.76
74466;BME280;62916;50.044;15.938;2023-06-10T02:24:09;98888.22;;;25.00;49.91
74466;BME280;62916;50.044;15.938;2023-06-10T02:26:40;98887.82;;;25.00;49.80
74466;BME280;62916;50.044;15.938;2023-06-10T02:29:11;98891.23;;;25.00;49.58
74466;BME280;62916;50.044;15.938;2023-06-10T02:31:41;98891.55;;;25.01;49.62
74466;BME280;62916;50.044;15.938;2023-06-10T02:34:13;98887.39;;;25.00;49.78
74466;BME280;62916;50.044;15.938;2023-06-10T02:36:45;98886.66;;;25.00;49.68
74466;BME280;62916;50.044;15.938;2023-06-10T02:39:15;98886.94;;;24.98;49.91
74466;BME280;62916;50.044;15.938;2023-06-10T02:41:46;98887.65;;;24.98;49.90
74466;BME280;62916;50.044;15.938;2023-06-10T02:44:19;98888.34;;;24.97;49.69
74466;BME280;62916;50.044;15.938;2023-06-10T02:46:50;98890.27;;;24.96;49.70
74466;BME280;62916;50.044;15.938;2023-06-10T02:49:21;98892.04;;;24.96;49.73
74466;BME280;62916;50.044;15.938;2023-06-10T02:51:52;98891.04;;;24.96;49.82
74466;BME280;62916;50.044;15.938;2023-06-10T02:54:23;98886.48;;;24.95;49.72
74466;BME280;62916;50.044;15.938;2023-06-10T02:56:54;98890.95;;;24.92;49.82
74466;BME280;62916;50.044;15.938;2023-06-10T02:59:25;98892.86;;;24.94;49.90
74466;BME280;62916;50.044;15.938;2023-06-10T03:01:58;98893.86;;;24.95;49.82
74466;BME280;62916;50.044;15.938;2023-06-10T03:04:31;98890.73;;;24.95;49.84
74466;BME280;62916;50.044;15.938;2023-06-10T03:07:01;98889.98;;;24.94;49.87
74466;BME280;62916;50.044;15.938;2023-06-10T03:09:33;98887.68;;;24.93;49.74
74466;BME280;62916;50.044;15.938;2023-06-10T03:12:04;98891.23;;;24.93;49.69
74466;BME280;62916;50.044;15.938;2023-06-10T03:14:35;98893.02;;;24.93;49.91
74466;BME280;62916;50.044;15.938;2023-06-10T03:17:08;98892.64;;;24.92;49.69
74466;BME280;62916;50.044;15.938;2023-06-10T03:19:39;98896.85;;;24.91;49.92
74466;BME280;62916;50.044;15.938;2023-06-10T03:22:11;98901.52;;;24.91;49.73
74466;BME280;62916;50.044;15.938;2023-06-10T03:24:42;98901.23;;;24.89;49.96
74466;BME280;62916;50.044;15.938;2023-06-10T03:27:14;98902.73;;;24.89;49.85
74466;BME280;62916;50.044;15.938;2023-06-10T03:29:45;98902.95;;;24.86;49.70
74466;BME280;62916;50.044;15.938;2023-06-10T03:32:15;98903.65;;;24.87;49.78
74466;BME280;62916;50.044;15.938;2023-06-10T03:34:46;98900.91;;;24.85;49.86
74466;BME280;62916;50.044;15.938;2023-06-10T03:37:17;98907.41;;;24.86;49.87
74466;BME280;62916;50.044;15.938;2023-06-10T03:39:48;98909.04;;;24.86;49.87
74466;BME280;62916;50.044;15.938;2023-06-10T03:42:19;98907.48;;;24.85;49.88
74466;BME280;62916;50.044;15.938;2023-06-10T03:44:50;98912.18;;;24.85;49.99
74466;BME280;62916;50.044;15.938;2023-06-10T03:47:21;98918.19;;;24.86;49.99
74466;BME280;62916;50.044;15.938;2023-06-10T03:49:51;98913.60;;;24.85;49.98
74466;BME280;62916;50.044;15.938;2023-06-10T03:52:23;98911.64;;;24.84;50.08
74466;BME280;62916;50.044;15.938;2023-06-10T03:54:54;98907.65;;;24.83;50.12
74466;BME280;62916;50.044;15.938;2023-06-10T03:57:24;98904.63;;;24.82;50.10
74466;BME280;62916;50.044;15.938;2023-06-10T03:59:55;98908.35;;;24.82;50.18
74466;BME280;62916;50.044;15.938;2023-06-10T04:02:27;98910.52;;;24.82;50.32
74466;BME280;62916;50.044;15.938;2023-06-10T04:04:58;98913.40;;;24.80;50.24
74466;BME280;62916;50.044;15.938;2023-06-10T04:07:29;98911.48;;;24.79;50.29
74466;BME280;62916;50.044;15.938;2023-06-10T04:10:00;98915.61;;;24.79;50.22
74466;BME280;62916;50.044;15.938;2023-06-10T04:12:31;98917.48;;;24.79;50.25
74466;BME280;62916;50.044;15.938;2023-06-10T04:15:03;98916.40;;;24.78;50.26
74466;BME280;62916;50.044;15.938;2023-06-10T04:17:35;98917.03;;;24.78;50.31
74466;BME280;62916;50.044;15.938;2023-06-10T04:20:08;98915.09;;;24.78;50.18
74466;BME280;62916;50.044;15.938;2023-06-10T04:22:39;98919.03;;;24.77;50.19
74466;BME280;62916;50.044;15.938;2023-06-10T04:25:10;98914.95;;;24.76;50.15
74466;BME280;62916;50.044;15.938;2023-06-10T04:27:41;98914.30;;;24.77;50.08
74466;BME280;62916;50.044;15.938;2023-06-10T04:30:14;98911.08;;;24.77;50.25
74466;BME280;62916;50.044;15.938;2023-06-10T04:32:46;98913.34;;;24.77;50.37
74466;BME280;62916;50.044;15.938;2023-06-10T04:35:17;98915.89;;;24.78;50.19
74466;BME280;62916;50.044;15.938;2023-06-10T04:37:48;98914.52;;;24.78;50.15
74466;BME280;62916;50.044;15.938;2023-06-10T04:40:19;98916.14;;;24.78;50.22
74466;BME280;62916;50.044;15.938;2023-06-10T04:42:50;98915.70;;;24.77;50.25
74466;BME280;62916;50.044;15.938;2023-06-10T04:45:21;98915.78;;;24.79;50.23
74466;BME280;62916;50.044;15.938;2023-06-10T04:47:51;98919.02;;;24.79;50.46
74466;BME280;62916;50.044;15.938;2023-06-10T04:50:25;98916.74;;;24.79;50.13
74466;BME280;62916;50.044;15.938;2023-06-10T04:52:56;98919.18;;;24.79;50.28
74466;BME280;62916;50.044;15.938;2023-06-10T04:55:27;98916.06;;;24.78;50.25
74466;BME280;62916;50.044;15.938;2023-06-10T04:57:57;98914.02;;;24.78;50.39
74466;BME280;62916;50.044;15.938;2023-06-10T05:00:28;98916.43;;;24.77;50.35
74466;BME280;62916;50.044;15.938;2023-06-10T05:02:59;98911.96;;;24.77;50.38
74466;BME280;62916;50.044;15.938;2023-06-10T05:05:30;98914.59;;;24.75;50.42
74466;BME280;62916;50.044;15.938;2023-06-10T05:08:01;98919.36;;;24.75;50.55
74466;BME280;62916;50.044;15.938;2023-06-10T05:10:36;98918.45;;;24.74;50.40
74466;BME280;62916;50.044;15.938;2023-06-10T05:13:06;98920.07;;;24.72;50.65
74466;BME280;62916;50.044;15.938;2023-06-10T05:15:37;98921.93;;;24.75;50.47
74466;BME280;62916;50.044;15.938;2023-06-10T05:18:08;98929.31;;;24.75;50.66
74466;BME280;62916;50.044;15.938;2023-06-10T05:20:38;98930.35;;;24.74;50.49
74466;BME280;62916;50.044;15.938;2023-06-10T05:23:09;98933.70;;;24.75;50.60
74466;BME280;62916;50.044;15.938;2023-06-10T05:25:40;98928.43;;;24.75;50.52
74466;BME280;62916;50.044;15.938;2023-06-10T05:28:11;98928.27;;;24.75;50.65
74466;BME280;62916;50.044;15.938;2023-06-10T05:30:44;98934.67;;;24.75;50.48
74466;BME280;62916;50.044;15.938;2023-06-10T05:33:15;98937.60;;;24.76;50.61
74466;BME280;62916;50.044;15.938;2023-06-10T05:35:45;98945.80;;;24.76;50.41
74466;BME280;62916;50.044;15.938;2023-06-10T05:38:16;98947.65;;;24.75;50.56
74466;BME280;62916;50.044;15.938;2023-06-10T05:40:47;98948.95;;;24.73;50.55
74466;BME280;62916;50.044;15.938;2023-06-10T05:43:18;98948.75;;;24.74;50.62
74466;BME280;62916;50.044;15.938;2023-06-10T05:45:49;98949.29;;;24.74;50.48
74466;BME280;62916;50.044;15.938;2023-06-10T05:48:19;98944.11;;;24.74;50.72
74466;BME280;62916;50.044;15.938;2023-06-10T05:50:50;98942.45;;;24.72;50.69
74466;BME280;62916;50.044;15.938;2023-06-10T05:53:21;98947.39;;;24.75;50.62
74466;BME280;62916;50.044;15.938;2023-06-10T05:55:52;98947.75;;;24.76;50.59
74466;BME280;62916;50.044;15.938;2023-06-10T05:58:26;98944.77;;;24.76;50.57
74466;BME280;62916;50.044;15.938;2023-06-10T06:00:57;98944.38;;;24.77;50.74
74466;BME280;62916;50.044;15.938;2023-06-10T06:03:28;98944.84;;;24.76;50.44
74466;BME280;62916;50.044;15.938;2023-06-10T06:06:01;98944.21;;;24.76;50.56
74466;BME280;62916;50.044;15.938;2023-06-10T06:08:32;98941.33;;;24.75;50.84
74466;BME280;62916;50.044;15.938;2023-06-10T06:11:02;98938.94;;;24.76;50.80
74466;BME280;62916;50.044;15.938;2023-06-10T06:13:33;98944.85;;;24.76;50.90
74466;BME280;62916;50.044;15.938;2023-06-10T06:16:05;98944.44;;;24.76;50.62
74466;BME280;62916;50.044;15.938;2023-06-10T06:18:35;98940.07;;;24.76;50.77
74466;BME280;62916;50.044;15.938;2023-06-10T06:21:06;98941.27;;;24.76;51.00
74466;BME280;62916;50.044;15.938;2023-06-10T06:23:37;98937.87;;;24.76;51.04
74466;BME280;62916;50.044;15.938;2023-06-10T06:26:08;98944.11;;;24.76;51.02
74466;BME280;62916;50.044;15.938;2023-06-10T06:28:39;98941.46;;;24.75;50.95
74466;BME280;62916;50.044;15.938;2023-06-10T06:31:10;98938.48;;;24.75;50.95
74466;BME280;62916;50.044;15.938;2023-06-10T06:33:41;98937.13;;;24.76;50.91
74466;BME280;62916;50.044;15.938;2023-06-10T06:36:12;98940.38;;;24.76;51.11
74466;BME280;62916;50.044;15.938;2023-06-10T06:38:43;98942.12;;;24.75;51.16
74466;BME280;62916;50.044;15.938;2023-06-10T06:41:14;98947.73;;;24.76;51.07
74466;BME280;62916;50.044;15.938;2023-06-10T06:43:45;98948.17;;;24.77;50.94
74466;BME280;62916;50.044;15.938;2023-06-10T06:46:15;98948.00;;;24.76;51.09
74466;BME280;62916;50.044;15.938;2023-06-10T06:48:46;98948.02;;;24.76;51.07
74466;BME280;62916;50.044;15.938;2023-06-10T06:51:17;98948.72;;;24.76;51.10
74466;BME280;62916;50.044;15.938;2023-06-10T06:53:48;98952.25;;;24.77;51.03
74466;BME280;62916;50.044;15.938;2023-06-10T06:56:20;98954.31;;;24.76;50.93
74466;BME280;62916;50.044;15.938;2023-06-10T06:58:51;98961.38;;;24.78;51.03
74466;BME280;62916;50.044;15.938;2023-06-10T07:01:26;98962.94;;;24.79;50.92
74466;BME280;62916;50.044;15.938;2023-06-10T07:03:57;98965.05;;;24.79;51.04
74466;BME280;62916;50.044;15.938;2023-06-10T07:06:27;98969.45;;;24.78;51.06
74466;BME280;62916;50.044;15.938;2023-06-10T07:08:58;98973.69;;;24.78;50.79
74466;BME280;62916;50.044;15.938;2023-06-10T07:11:29;98973.33;;;24.77;50.99
74466;BME280;62916;50.044;15.938;2023-06-10T07:14:00;98974.46;;;24.77;50.85
74466;BME280;62916;50.044;15.938;2023-06-10T07:16:31;98974.38;;;24.77;50.76
74466;BME280;62916;50.044;15.938;2023-06-10T07:19:02;98972.42;;;24.77;50.83
74466;BME280;62916;50.044;15.938;2023-06-10T07:21:34;98964.06;;;24.74;50.77
74466;BME280;62916;50.044;15.938;2023-06-10T07:24:06;98972.76;;;24.77;50.86
74466;BME280;62916;50.044;15.938;2023-06-10T07:26:37;98971.03;;;24.77;50.93
74466;BME280;62916;50.044;15.938;2023-06-10T07:29:08;98974.19;;;24.76;50.99
74466;BME280;62916;50.044;15.938;2023-06-10T07:31:39;98974.43;;;24.77;50.99
74466;BME280;62916;50.044;15.938;2023-06-10T07:34:11;98976.80;;;24.77;50.82
74466;BME280;62916;50.044;15.938;2023-06-10T07:36:42;98972.90;;;24.77;51.13
74466;BME280;62916;50.044;15.938;2023-06-10T07:39:13;98975.44;;;24.77;50.92
74466;BME280;62916;50.044;15.938;2023-06-10T07:41:44;98976.34;;;24.77;51.02
74466;BME280;62916;50.044;15.938;2023-06-10T07:44:14;98978.60;;;24.77;50.86
74466;BME280;62916;50.044;15.938;2023-06-10T07:46:45;98976.67;;;24.78;50.90
74466;BME280;62916;50.044;15.938;2023-06-10T07:49:16;98978.27;;;24.77;51.02
74466;BME280;62916;50.044;15.938;2023-06-10T07:51:47;98982.88;;;24.77;50.97
74466;BME280;62916;50.044;15.938;2023-06-10T07:54:18;98983.47;;;24.78;50.97
74466;BME280;62916;50.044;15.938;2023-06-10T07:56:49;98980.02;;;24.79;50.83
74466;BME280;62916;50.044;15.938;2023-06-10T07:59:21;98982.34;;;24.80;51.00
74466;BME280;62916;50.044;15.938;2023-06-10T08:01:52;98981.31;;;24.80;51.18
74466;BME280;62916;50.044;15.938;2023-06-10T08:04:23;98983.18;;;24.83;51.07
74466;BME280;62916;50.044;15.938;2023-06-10T08:06:54;98984.10;;;24.86;51.18
74466;BME280;62916;50.044;15.938;2023-06-10T08:09:25;98988.08;;;24.89;51.09
74466;BME280;62916;50.044;15.938;2023-06-10T08:11:56;98988.39;;;24.90;51.00
74466;BME280;62916;50.044;15.938;2023-06-10T08:14:27;98989.90;;;24.93;51.13
74466;BME280;62916;50.044;15.938;2023-06-10T08:16:58;98989.81;;;24.96;51.21
74466;BME280;62916;50.044;15.938;2023-06-10T08:19:28;98986.86;;;24.98;51.20
74466;BME280;62916;50.044;15.938;2023-06-10T08:22:00;98987.39;;;25.01;51.09
74466;BME280;62916;50.044;15.938;2023-06-10T08:24:30;98988.04;;;25.03;51.16
74466;BME280;62916;50.044;15.938;2023-06-10T08:27:01;98991.40;;;25.05;51.19
74466;BME280;62916;50.044;15.938;2023-06-10T08:29:32;98992.52;;;25.06;51.45
74466;BME280;62916;50.044;15.938;2023-06-10T08:32:03;98991.05;;;25.09;51.28
74466;BME280;62916;50.044;15.938;2023-06-10T08:34:35;98991.23;;;25.11;51.18
74466;BME280;62916;50.044;15.938;2023-06-10T08:37:06;98987.73;;;25.13;51.32
74466;BME280;62916;50.044;15.938;2023-06-10T08:39:37;98991.81;;;25.14;51.13
74466;BME280;62916;50.044;15.938;2023-06-10T08:42:14;98993.23;;;25.18;51.25
74466;BME280;62916;50.044;15.938;2023-06-10T08:44:48;98994.80;;;25.21;51.26
74466;BME280;62916;50.044;15.938;2023-06-10T08:47:23;98995.29;;;25.23;51.27
74466;BME280;62916;50.044;15.938;2023-06-10T08:49:56;98993.30;;;25.25;51.29
74466;BME280;62916;50.044;15.938;2023-06-10T08:52:35;98991.88;;;25.28;51.08
74466;BME280;62916;50.044;15.938;2023-06-10T08:55:12;98993.59;;;25.31;51.15
74466;BME280;62916;50.044;15.938;2023-06-10T08:57:44;98994.41;;;25.33;50.97
74466;BME280;62916;50.044;15.938;2023-06-10T09:00:18;98995.11;;;25.36;51.13
74466;BME280;62916;50.044;15.938;2023-06-10T09:02:50;99000.33;;;25.39;51.06
74466;BME280;62916;50.044;15.938;2023-06-10T09:05:21;98996.50;;;25.38;51.07
74466;BME280;62916;50.044;15.938;2023-06-10T09:07:53;98998.17;;;25.42;51.15
74466;BME280;62916;50.044;15.938;2023-06-10T09:10:24;98998.89;;;25.44;51.16
74466;BME280;62916;50.044;15.938;2023-06-10T09:12:55;98999.60;;;25.47;51.12
74466;BME280;62916;50.044;15.938;2023-06-10T09:15:28;98993.34;;;25.48;51.16
74466;BME280;62916;50.044;15.938;2023-06-10T09:17:59;98990.66;;;25.51;50.85
74466;BME280;62916;50.044;15.938;2023-06-10T09:20:30;98992.04;;;25.53;51.11
74466;BME280;62916;50.044;15.938;2023-06-10T09:23:02;98992.23;;;25.54;50.82
74466;BME280;62916;50.044;15.938;2023-06-10T09:25:39;98988.85;;;25.55;51.15
74466;BME280;62916;50.044;15.938;2023-06-10T09:28:15;98989.86;;;25.57;50.88
74466;BME280;62916;50.044;15.938;2023-06-10T09:30:46;98988.25;;;25.57;51.12
74466;BME280;62916;50.044;15.938;2023-06-10T09:33:17;98984.97;;;25.58;51.02
74466;BME280;62916;50.044;15.938;2023-06-10T09:35:49;98988.20;;;25.60;50.91
74466;BME280;62916;50.044;15.938;2023-06-10T09:38:22;98985.36;;;25.60;51.01
74466;BME280;62916;50.044;15.938;2023-06-10T09:40:54;98986.93;;;25.60;50.83
74466;BME280;62916;50.044;15.938;2023-06-10T09:43:39;98991.67;;;25.61;50.79
74466;BME280;62916;50.044;15.938;2023-06-10T09:46:15;98990.92;;;25.62;50.95
74466;BME280;62916;50.044;15.938;2023-06-10T09:48:47;98988.52;;;25.62;51.21
74466;BME280;62916;50.044;15.938;2023-06-10T09:51:18;98987.05;;;25.64;51.12
74466;BME280;62916;50.044;15.938;2023-06-10T09:53:52;98991.81;;;25.66;51.20
74466;BME280;62916;50.044;15.938;2023-06-10T09:56:23;98990.92;;;25.69;51.16
74466;BME280;62916;50.044;15.938;2023-06-10T09:59:03;98992.16;;;25.71;51.28
74466;BME280;62916;50.044;15.938;2023-06-10T10:01:36;98990.16;;;25.75;51.27
74466;BME280;62916;50.044;15.938;2023-06-10T10:04:07;98980.86;;;25.79;51.07
74466;BME280;62916;50.044;15.938;2023-06-10T10:06:38;98986.19;;;25.80;51.11
74466;BME280;62916;50.044;15.938;2023-06-10T10:09:09;98987.25;;;25.83;51.16
74466;BME280;62916;50.044;15.938;2023-06-10T10:11:41;98982.47;;;25.83;51.03
74466;BME280;62916;50.044;15.938;2023-06-10T10:14:14;98986.18;;;25.86;51.13
74466;BME280;62916;50.044;15.938;2023-06-10T10:16:48;98986.00;;;25.87;51.26
74466;BME280;62916;50.044;15.938;2023-06-10T10:19:23;98986.61;;;25.89;51.02
74466;BME280;62916;50.044;15.938;2023-06-10T10:22:03;98988.36;;;25.90;51.02
74466;BME280;62916;50.044;15.938;2023-06-10T10:24:38;98985.00;;;25.92;51.07
74466;BME280;62916;50.044;15.938;2023-06-10T10:27:18;98978.48;;;25.94;50.90
74466;BME280;62916;50.044;15.938;2023-06-10T10:29:52;98973.25;;;25.95;50.89
74466;BME280;62916;50.044;15.938;2023-06-10T10:32:26;98971.83;;;25.97;50.78
74466;BME280;62916;50.044;15.938;2023-06-10T10:35:06;98966.43;;;25.98;51.07
74466;BME280;62916;50.044;15.938;2023-06-10T10:37:38;98964.44;;;25.99;51.03
74466;BME280;62916;50.044;15.938;2023-06-10T10:40:11;98962.33;;;26.02;50.99
74466;BME280;62916;50.044;15.938;2023-06-10T10:42:42;98959.36;;;26.03;50.88
74466;BME280;62916;50.044;15.938;2023-06-10T10:45:14;98956.80;;;26.05;50.72
74466;BME280;62916;50.044;15.938;2023-06-10T10:47:46;98954.89;;;26.06;50.80
74466;BME280;62916;50.044;15.938;2023-06-10T10:50:23;98946.64;;;26.08;50.79
74466;BME280;62916;50.044;15.938;2023-06-10T10:52:56;98948.64;;;26.09;50.88
74466;BME280;62916;50.044;15.938;2023-06-10T10:55:28;98947.41;;;26.11;50.94
74466;BME280;62916;50.044;15.938;2023-06-10T10:58:02;98942.52;;;26.13;50.70
74466;BME280;62916;50.044;15.938;2023-06-10T11:00:35;98949.71;;;26.15;50.49
74466;BME280;62916;50.044;15.938;2023-06-10T11:03:08;98938.95;;;26.14;50.83
74466;BME280;62916;50.044;15.938;2023-06-10T11:05:44;98947.11;;;26.18;50.54
74466;BME280;62916;50.044;15.938;2023-06-10T11:08:47;98941.48;;;26.20;50.75
74466;BME280;62916;50.044;15.938;2023-06-10T11:11:24;98944.61;;;26.21;50.79
74466;BME280;62916;50.044;15.938;2023-06-10T11:14:06;98947.02;;;26.23;50.51
74466;BME280;62916;50.044;15.938;2023-06-10T11:16:43;98944.63;;;26.25;50.81
74466;BME280;62916;50.044;15.938;2023-06-10T11:19:33;98944.27;;;26.26;50.85
74466;BME280;62916;50.044;15.938;2023-06-10T11:22:07;98945.45;;;26.27;50.56
74466;BME280;62916;50.044;15.938;2023-06-10T11:24:39;98936.23;;;26.28;50.65
74466;BME280;62916;50.044;15.938;2023-06-10T11:27:20;98934.75;;;26.30;50.71
74466;BME280;62916;50.044;15.938;2023-06-10T11:29:58;98937.64;;;26.32;50.77
74466;BME280;62916;50.044;15.938;2023-06-10T11:32:31;98929.30;;;26.30;50.48
74466;BME280;62916;50.044;15.938;2023-06-10T11:35:04;98927.77;;;26.31;50.70
74466;BME280;62916;50.044;15.938;2023-06-10T11:37:37;98926.75;;;26.34;50.51
74466;BME280;62916;50.044;15.938;2023-06-10T11:40:10;98927.51;;;26.36;50.38
74466;BME280;62916;50.044;15.938;2023-06-10T11:42:44;98922.09;;;26.37;50.26
74466;BME280;62916;50.044;15.938;2023-06-10T11:45:17;98922.91;;;26.38;50.09
74466;BME280;62916;50.044;15.938;2023-06-10T11:47:58;98926.10;;;26.38;50.06
74466;BME280;62916;50.044;15.938;2023-06-10T11:50:33;98926.46;;;26.40;50.15
74466;BME280;62916;50.044;15.938;2023-06-10T11:53:04;98923.41;;;26.40;49.75
74466;BME280;62916;50.044;15.938;2023-06-10T11:55:46;98915.77;;;26.38;49.67
74466;BME280;62916;50.044;15.938;2023-06-10T11:58:18;98916.74;;;26.41;49.62
74466;BME280;62916;50.044;15.938;2023-06-10T12:00:51;98917.51;;;26.42;49.79
74466;BME280;62916;50.044;15.938;2023-06-10T12:03:23;98917.32;;;26.41;49.62
74466;BME280;62916;50.044;15.938;2023-06-10T12:05:58;98923.08;;;26.40;49.75
74466;BME280;62916;50.044;15.938;2023-06-10T12:08:30;98928.05;;;26.41;49.59
74466;BME280;62916;50.044;15.938;2023-06-10T12:11:05;98923.77;;;26.42;49.59
74466;BME280;62916;50.044;15.938;2023-06-10T12:13:38;98922.08;;;26.42;49.53
74466;BME280;62916;50.044;15.938;2023-06-10T12:16:16;98917.48;;;26.41;49.50
74466;BME280;62916;50.044;15.938;2023-06-10T12:18:48;98919.53;;;26.44;49.63
74466;BME280;62916;50.044;15.938;2023-06-10T12:21:23;98916.80;;;26.45;49.49
74466;BME280;62916;50.044;15.938;2023-06-10T12:24:08;98917.55;;;26.46;49.57
74466;BME280;62916;50.044;15.938;2023-06-10T12:26:40;98916.13;;;26.48;49.61
74466;BME280;62916;50.044;15.938;2023-06-10T12:29:21;98915.10;;;26.49;49.53
74466;BME280;62916;50.044;15.938;2023-06-10T12:31:57;98914.86;;;26.49;49.68
74466;BME280;62916;50.044;15.938;2023-06-10T12:34:36;98918.27;;;26.49;49.29
74466;BME280;62916;50.044;15.938;2023-06-10T12:37:12;98911.15;;;26.51;49.50
74466;BME280;62916;50.044;15.938;2023-06-10T12:39:52;98913.75;;;26.53;49.15
74466;BME280;62916;50.044;15.938;2023-06-10T12:42:24;98908.46;;;26.53;49.40
74466;BME280;62916;50.044;15.938;2023-06-10T12:44:55;98911.69;;;26.55;49.41
74466;BME280;62916;50.044;15.938;2023-06-10T12:47:34;98909.59;;;26.55;49.03
74466;BME280;62916;50.044;15.938;2023-06-10T12:50:07;98905.20;;;26.55;49.12
74466;BME280;62916;50.044;15.938;2023-06-10T12:52:38;98907.91;;;26.57;49.01
74466;BME280;62916;50.044;15.938;2023-06-10T12:55:09;98901.06;;;26.56;49.23
74466;BME280;62916;50.044;15.938;2023-06-10T12:57:50;98898.27;;;26.58;49.24
74466;BME280;62916;50.044;15.938;2023-06-10T13:00:21;98898.86;;;26.59;49.17
74466;BME280;62916;50.044;15.938;2023-06-10T13:02:55;98896.46;;;26.60;49.28
74466;BME280;62916;50.044;15.938;2023-06-10T13:05:26;98903.64;;;26.61;49.08
74466;BME280;62916;50.044;15.938;2023-06-10T13:07:57;98902.05;;;26.62;49.30
74466;BME280;62916;50.044;15.938;2023-06-10T13:10:28;98909.63;;;26.63;49.01
74466;BME280;62916;50.044;15.938;2023-06-10T13:12:59;98903.56;;;26.64;49.21
74466;BME280;62916;50.044;15.938;2023-06-10T13:15:30;98901.54;;;26.64;48.91
74466;BME280;62916;50.044;15.938;2023-06-10T13:18:01;98903.11;;;26.65;48.82
74466;BME280;62916;50.044;15.938;2023-06-10T13:20:33;98904.90;;;26.65;48.84